Time;durP1;ratioP1;P1;durP2;ratioP2;P2;SDS_P1;SDS_P2;PMS_P1;PMS_P2;Temp;Humidity;BMP_temperature;BMP_pressure;BME280_temperature;BME280_humidity;BME280_pressure;Samples;Min_cycle;Max_cycle;Signal;HPM_P1;HPM_P2
2021/11/21 00:01:35;;;;;;;35.03;22.50;;;9.60;99.90;;;;;;4084108;29;20027;-70
2021/11/21 00:03:36;;;;;;;34.85;22.83;;;9.60;99.90;;;;;;4102369;28;20045;-70
2021/11/21 00:05:40;;;;;;;35.85;21.95;;;9.60;99.90;;;;;;4098587;28;20031;-71
2021/11/21 00:07:42;;;;;;;35.70;22.80;;;9.60;99.90;;;;;;4096943;28;20030;-71
2021/11/21 00:09:42;;;;;;;34.78;23.80;;;9.60;99.90;;;;;;4104435;28;20031;-71
2021/11/21 00:11:43;;;;;;;37.33;23.20;;;9.60;99.90;;;;;;4101288;28;20102;-71
2021/11/21 00:13:45;;;;;;;33.45;22.65;;;9.50;99.90;;;;;;4101946;28;20616;-71
2021/11/21 00:15:46;;;;;;;36.20;23.45;;;9.50;99.90;;;;;;4085459;29;20035;-70
2021/11/21 00:17:46;;;;;;;32.33;21.65;;;9.50;99.90;;;;;;4104753;28;20919;-70
2021/11/21 00:19:47;;;;;;;33.58;22.58;;;9.50;99.90;;;;;;4095599;28;20146;-71
2021/11/21 00:21:48;;;;;;;32.20;21.48;;;9.50;99.90;;;;;;4105721;28;20493;-71
2021/11/21 00:23:48;;;;;;;34.25;22.98;;;9.50;99.90;;;;;;4085933;29;20114;-71
2021/11/21 00:25:49;;;;;;;32.30;21.13;;;9.40;99.90;;;;;;4105777;28;20122;-71
2021/11/21 00:27:50;;;;;;;36.20;20.52;;;9.40;99.90;;;;;;4079251;29;20533;-71
2021/11/21 00:29:53;;;;;;;31.50;20.45;;;9.50;99.90;;;;;;4103754;28;20059;-71
2021/11/21 00:31:54;;;;;;;35.72;23.25;;;9.50;99.90;;;;;;4083816;29;20055;-71
2021/11/21 00:33:54;;;;;;;34.10;22.38;;;9.50;99.90;;;;;;4086984;29;20430;-70
2021/11/21 00:35:55;;;;;;;34.13;21.42;;;9.40;99.90;;;;;;4104555;28;20056;-71
2021/11/21 00:37:56;;;;;;;32.28;21.15;;;9.40;99.90;;;;;;4091720;28;20605;-71
2021/11/21 00:39:57;;;;;;;29.98;20.20;;;9.40;99.90;;;;;;4108187;28;20470;-71
2021/11/21 00:41:58;;;;;;;31.80;21.45;;;9.40;99.90;;;;;;4105612;28;20043;-71
2021/11/21 00:43:58;;;;;;;32.00;19.70;;;9.50;99.90;;;;;;4108089;28;20848;-71
2021/11/21 00:46:00;;;;;;;32.88;21.02;;;9.50;99.90;;;;;;4106994;28;20039;-71
2021/11/21 00:48:01;;;;;;;34.10;21.95;;;9.50;99.90;;;;;;4107993;28;20258;-71
2021/11/21 00:50:04;;;;;;;31.33;20.67;;;9.50;99.90;;;;;;4104647;28;20463;-71
2021/11/21 00:52:05;;;;;;;37.25;22.90;;;9.50;99.90;;;;;;4092135;29;20037;-71
2021/11/21 00:54:11;;;;;;;29.02;19.67;;;9.40;99.90;;;;;;4105559;28;20058;-71
2021/11/21 00:56:12;;;;;;;32.35;20.75;;;9.50;99.90;;;;;;4103664;28;20034;-71
2021/11/21 00:58:13;;;;;;;35.75;22.40;;;9.40;99.90;;;;;;4105559;28;20051;-71
2021/11/21 01:00:16;;;;;;;31.48;20.63;;;9.40;99.90;;;;;;4103977;28;20035;-71
2021/11/21 01:02:18;;;;;;;36.92;24.52;;;9.40;99.90;;;;;;4107198;28;20043;-71
2021/11/21 01:04:19;;;;;;;38.75;24.17;;;9.40;99.90;;;;;;4088046;29;20059;-71
2021/11/21 01:06:20;;;;;;;35.75;22.33;;;9.30;99.90;;;;;;4100599;28;20019;-71
2021/11/21 01:08:21;;;;;;;35.78;22.67;;;9.30;99.90;;;;;;4105832;28;20752;-71
2021/11/21 01:10:23;;;;;;;35.55;23.00;;;9.30;99.90;;;;;;4105618;28;20043;-71
2021/11/21 01:12:23;;;;;;;33.80;21.63;;;9.30;99.90;;;;;;4091052;29;20039;-71
2021/11/21 01:14:24;;;;;;;30.73;21.02;;;9.30;99.90;;;;;;4103385;28;20071;-71
2021/11/21 01:16:26;;;;;;;32.45;22.02;;;9.30;99.90;;;;;;4102034;28;20070;-71
2021/11/21 01:18:27;;;;;;;38.63;23.75;;;9.30;99.90;;;;;;4106920;28;20035;-71
2021/11/21 01:20:31;;;;;;;40.75;25.88;;;9.30;99.90;;;;;;4102844;28;20035;-71
2021/11/21 01:22:32;;;;;;;43.38;27.15;;;9.30;99.90;;;;;;4107084;28;20848;-71
2021/11/21 01:24:33;;;;;;;40.30;25.58;;;9.20;99.90;;;;;;4088486;29;20188;-71
2021/11/21 01:26:33;;;;;;;39.42;25.77;;;9.20;99.90;;;;;;4102859;28;20068;-71
2021/11/21 01:28:34;;;;;;;43.75;28.35;;;9.20;99.90;;;;;;4105028;28;20649;-71
2021/11/21 01:30:35;;;;;;;47.38;29.63;;;9.20;99.90;;;;;;4086738;29;20039;-71
2021/11/21 01:32:37;;;;;;;46.08;30.10;;;9.20;99.90;;;;;;4104607;28;20062;-71
2021/11/21 01:34:38;;;;;;;48.38;28.73;;;9.20;99.90;;;;;;4091578;29;20038;-71
2021/11/21 01:36:39;;;;;;;49.65;31.38;;;9.20;99.90;;;;;;4105319;28;20181;-71
2021/11/21 01:38:41;;;;;;;47.45;29.55;;;9.20;99.90;;;;;;4103669;28;20716;-71
2021/11/21 01:40:41;;;;;;;47.20;30.70;;;9.30;99.90;;;;;;4106097;28;20031;-71
2021/11/21 01:42:45;;;;;;;47.85;29.38;;;9.30;99.90;;;;;;4102612;28;20032;-71
2021/11/21 01:44:45;;;;;;;45.85;28.38;;;9.30;99.90;;;;;;4105551;28;20055;-71
2021/11/21 01:46:48;;;;;;;52.28;32.35;;;9.30;99.90;;;;;;4104281;28;20027;-71
2021/11/21 01:48:48;;;;;;;;;;;9.20;99.90;;;;;;4105454;28;20035;-71
2021/11/21 01:50:50;;;;;;;40.38;26.38;;;9.20;99.90;;;;;;4103413;28;19921;-71
2021/11/21 01:52:51;;;;;;;39.83;25.52;;;9.20;99.90;;;;;;4106565;28;20046;-71
2021/11/21 01:54:51;;;;;;;47.97;28.65;;;9.20;99.90;;;;;;4089996;29;20039;-71
2021/11/21 01:56:52;;;;;;;42.10;26.75;;;9.20;99.90;;;;;;4105656;28;20059;-71
2021/11/21 01:58:54;;;;;;;38.13;24.02;;;9.20;99.90;;;;;;4105914;28;20030;-71
2021/11/21 02:00:55;;;;;;;46.80;28.60;;;9.20;99.90;;;;;;4103966;28;20136;-71
2021/11/21 02:02:56;;;;;;;37.42;23.35;;;9.10;99.90;;;;;;4104436;28;20028;-71
2021/11/21 02:04:56;;;;;;;39.65;25.08;;;9.10;99.90;;;;;;4103126;28;20114;-71
2021/11/21 02:06:57;;;;;;;36.55;23.00;;;9.10;99.90;;;;;;4102172;28;20031;-71
2021/11/21 02:08:58;;;;;;;36.78;23.55;;;9.10;99.90;;;;;;4106769;28;20035;-71
2021/11/21 02:10:59;;;;;;;36.08;22.63;;;9.10;99.90;;;;;;4102939;28;20452;-71
2021/11/21 02:13:00;;;;;;;35.80;22.58;;;9.10;99.90;;;;;;4105814;28;20035;-71
2021/11/21 02:15:01;;;;;;;34.05;21.70;;;9.10;99.90;;;;;;4104226;28;20078;-71
2021/11/21 02:17:02;;;;;;;30.17;19.60;;;9.10;99.90;;;;;;4091102;29;20415;-71
2021/11/21 02:19:03;;;;;;;33.92;20.67;;;9.10;99.90;;;;;;4105382;28;20034;-71
2021/11/21 02:21:04;;;;;;;30.00;19.48;;;9.20;99.90;;;;;;4087197;29;20027;-71
2021/11/21 02:23:06;;;;;;;32.65;20.00;;;9.20;99.90;;;;;;4088063;29;20035;-71
2021/11/21 02:25:11;;;;;;;33.08;20.95;;;9.20;99.90;;;;;;4086076;29;20031;-71
2021/11/21 02:27:15;;;;;;;35.85;21.48;;;9.20;99.90;;;;;;4102279;28;20099;-71
2021/11/21 02:29:16;;;;;;;29.55;18.92;;;9.20;99.90;;;;;;4088964;29;20026;-71
2021/11/21 02:31:17;;;;;;;34.83;21.38;;;9.20;99.90;;;;;;4101450;28;20093;-71
2021/11/21 02:33:20;;;;;;;29.95;19.33;;;9.20;99.90;;;;;;4104990;28;20027;-71
2021/11/21 02:35:21;;;;;;;31.50;18.73;;;9.30;99.90;;;;;;4103063;28;20165;-71
2021/11/21 02:37:22;;;;;;;28.92;18.73;;;9.30;99.90;;;;;;4104276;28;20084;-71
2021/11/21 02:39:23;;;;;;;29.17;19.15;;;9.30;99.90;;;;;;4084237;29;20610;-71
2021/11/21 02:41:23;;;;;;;31.00;20.15;;;9.30;99.90;;;;;;4088826;29;20027;-71
2021/11/21 02:43:24;;;;;;;35.72;21.50;;;9.30;99.90;;;;;;4085905;29;20484;-71
2021/11/21 02:45:26;;;;;;;33.53;20.05;;;9.30;99.90;;;;;;4102349;28;20082;-71
2021/11/21 02:47:33;;;;;;;36.63;21.33;;;9.30;99.90;;;;;;4101919;28;20510;-71
2021/11/21 02:49:38;;;;;;;35.40;20.55;;;9.30;99.90;;;;;;4101201;28;21417;-71
2021/11/21 02:51:39;;;;;;;33.17;19.92;;;9.30;99.90;;;;;;4099452;28;20070;-71
2021/11/21 02:53:42;;;;;;;31.15;19.48;;;9.20;99.90;;;;;;4086141;29;20035;-71
2021/11/21 02:55:42;;;;;;;34.38;20.63;;;9.20;99.90;;;;;;4104876;28;20046;-71
2021/11/21 02:57:43;;;;;;;32.75;20.15;;;9.20;99.90;;;;;;4101077;28;20081;-71
2021/11/21 02:59:44;;;;;;;31.48;19.48;;;9.20;99.90;;;;;;4100414;28;20039;-71
2021/11/21 03:01:44;;;;;;;30.30;19.15;;;9.20;99.90;;;;;;4100368;28;20442;-71
2021/11/21 03:03:46;;;;;;;39.35;20.70;;;9.20;99.90;;;;;;4102487;28;20438;-71
2021/11/21 03:05:46;;;;;;;31.23;19.90;;;9.10;99.90;;;;;;4106169;28;20687;-71
2021/11/21 03:07:48;;;;;;;33.65;19.63;;;9.10;99.90;;;;;;4105802;28;20027;-71
2021/11/21 03:09:50;;;;;;;30.75;18.95;;;9.20;99.90;;;;;;4107574;28;20038;-71
2021/11/21 03:11:53;;;;;;;34.30;20.80;;;9.20;99.90;;;;;;4084037;29;20300;-71
2021/11/21 03:13:55;;;;;;;35.55;20.95;;;9.20;99.90;;;;;;4086477;29;20039;-71
2021/11/21 03:15:56;;;;;;;35.28;20.63;;;9.20;99.90;;;;;;4101486;28;20367;-71
2021/11/21 03:17:57;;;;;;;29.85;19.27;;;9.30;99.90;;;;;;4088779;29;20038;-71
2021/11/21 03:19:57;;;;;;;33.05;19.90;;;9.30;99.90;;;;;;4098579;28;20031;-71
2021/11/21 03:21:59;;;;;;;31.23;18.73;;;9.20;99.90;;;;;;4090178;29;20035;-71
2021/11/21 03:24:00;;;;;;;32.83;20.20;;;9.20;99.90;;;;;;4101036;28;20058;-71
2021/11/21 03:26:00;;;;;;;35.28;21.83;;;9.20;99.90;;;;;;4087757;29;20046;-71
2021/11/21 03:28:03;;;;;;;33.85;20.30;;;9.20;99.90;;;;;;4105642;28;20114;-71
2021/11/21 03:30:09;;;;;;;35.50;21.92;;;9.20;99.90;;;;;;4102807;28;20035;-71
2021/11/21 03:32:09;;;;;;;29.10;18.60;;;9.10;99.90;;;;;;4086307;29;20027;-71
2021/11/21 03:34:11;;;;;;;29.10;18.20;;;9.10;99.90;;;;;;4103946;28;20059;-71
2021/11/21 03:36:11;;;;;;;28.02;18.13;;;9.20;99.90;;;;;;4102719;28;20043;-71
2021/11/21 03:38:12;;;;;;;29.85;17.60;;;9.20;99.90;;;;;;4102978;28;20761;-71
2021/11/21 03:40:16;;;;;;;27.65;17.33;;;9.20;99.90;;;;;;4104184;28;20352;-71
2021/11/21 03:42:17;;;;;;;26.70;16.80;;;9.20;99.90;;;;;;4106277;28;20118;-71
2021/11/21 03:44:18;;;;;;;27.95;17.67;;;9.20;99.90;;;;;;4085022;29;20181;-71
2021/11/21 03:46:20;;;;;;;30.20;19.23;;;9.20;99.90;;;;;;4101563;28;20648;-71
2021/11/21 03:48:21;;;;;;;;;;;9.20;99.90;;;;;;4086552;28;20487;-71
2021/11/21 03:50:22;;;;;;;28.17;16.50;;;9.20;99.90;;;;;;4104872;28;19976;-71
2021/11/21 03:52:22;;;;;;;28.38;17.33;;;9.10;99.90;;;;;;4084030;29;21364;-71
2021/11/21 03:54:23;;;;;;;26.33;16.65;;;9.20;99.90;;;;;;4084750;29;20043;-71
2021/11/21 03:56:23;;;;;;;27.55;16.90;;;9.10;99.90;;;;;;4102697;28;20054;-71
2021/11/21 03:58:24;;;;;;;29.08;18.58;;;9.10;99.90;;;;;;4088744;29;20089;-71
2021/11/21 04:00:26;;;;;;;24.52;15.52;;;9.10;99.90;;;;;;4100026;28;20045;-71
2021/11/21 04:02:27;;;;;;;26.37;16.07;;;9.10;99.90;;;;;;4105448;28;20575;-71
2021/11/21 04:04:29;;;;;;;25.60;15.68;;;9.20;99.90;;;;;;4084976;29;20321;-71
2021/11/21 04:06:30;;;;;;;24.38;15.18;;;9.20;99.90;;;;;;4104704;28;20149;-71
2021/11/21 04:08:30;;;;;;;25.27;15.90;;;9.20;99.90;;;;;;4103633;28;20065;-71
2021/11/21 04:10:33;;;;;;;25.05;16.15;;;9.20;99.90;;;;;;4101849;28;20073;-71
2021/11/21 04:12:35;;;;;;;26.73;16.45;;;9.20;99.90;;;;;;4102497;28;20770;-72
2021/11/21 04:14:35;;;;;;;25.75;15.68;;;9.20;99.90;;;;;;4105352;28;20043;-71
2021/11/21 04:16:36;;;;;;;25.73;16.10;;;9.20;99.90;;;;;;4104960;28;20505;-71
2021/11/21 04:18:36;;;;;;;28.23;17.90;;;9.20;99.90;;;;;;4107361;28;20038;-71
2021/11/21 04:20:37;;;;;;;26.80;16.33;;;9.10;99.90;;;;;;4103233;28;20054;-71
2021/11/21 04:22:38;;;;;;;23.42;14.57;;;9.10;99.90;;;;;;4105936;28;20026;-71
2021/11/21 04:24:40;;;;;;;25.58;16.40;;;9.20;99.90;;;;;;4090023;29;20475;-71
2021/11/21 04:26:43;;;;;;;25.30;16.48;;;9.20;99.90;;;;;;4102096;28;20605;-71
2021/11/21 04:28:44;;;;;;;27.45;15.90;;;9.10;99.90;;;;;;4089669;29;20035;-71
2021/11/21 04:30:44;;;;;;;25.90;15.75;;;9.20;99.90;;;;;;4086088;29;20039;-71
2021/11/21 04:32:48;;;;;;;29.48;17.33;;;9.20;99.90;;;;;;4103136;28;20073;-71
2021/11/21 04:34:49;;;;;;;29.27;17.02;;;9.10;99.90;;;;;;4108297;28;20058;-71
2021/11/21 04:36:50;;;;;;;27.77;16.60;;;9.10;99.90;;;;;;4104827;28;20470;-71
2021/11/21 04:38:50;;;;;;;25.67;16.25;;;9.10;99.90;;;;;;4105222;28;20043;-71
2021/11/21 04:40:53;;;;;;;26.95;17.00;;;9.10;99.90;;;;;;4105015;28;20031;-71
2021/11/21 04:42:53;;;;;;;25.60;15.93;;;9.10;99.90;;;;;;4105143;28;20516;-71
2021/11/21 04:44:55;;;;;;;25.52;16.15;;;9.10;99.90;;;;;;4102812;28;20051;-71
2021/11/21 04:46:55;;;;;;;23.45;14.85;;;9.10;99.90;;;;;;4106754;28;20066;-71
2021/11/21 04:48:56;;;;;;;26.73;15.77;;;9.10;99.90;;;;;;4102238;28;20038;-71
2021/11/21 04:50:57;;;;;;;25.75;16.73;;;9.20;99.90;;;;;;4104069;28;20134;-71
2021/11/21 04:52:58;;;;;;;27.75;16.17;;;9.20;99.90;;;;;;4102169;28;20027;-71
2021/11/21 04:54:58;;;;;;;25.30;15.50;;;9.20;99.90;;;;;;4102074;28;20105;-71
2021/11/21 04:56:59;;;;;;;23.13;15.00;;;9.20;99.90;;;;;;4086779;29;20098;-71
2021/11/21 04:59:00;;;;;;;27.50;15.95;;;9.20;99.90;;;;;;4107843;28;20069;-71
2021/11/21 05:01:00;;;;;;;27.98;16.58;;;9.20;99.90;;;;;;4100905;28;20042;-71
2021/11/21 05:03:01;;;;;;;31.20;18.58;;;9.20;99.90;;;;;;4106315;28;20033;-71
2021/11/21 05:05:02;;;;;;;26.98;16.52;;;9.20;99.90;;;;;;4103927;28;20023;-71
2021/11/21 05:07:03;;;;;;;27.75;16.95;;;9.20;99.90;;;;;;4104666;28;20034;-71
2021/11/21 05:09:05;;;;;;;31.25;18.55;;;9.20;99.90;;;;;;4104835;28;20022;-71
2021/11/21 05:11:06;;;;;;;30.17;17.65;;;9.10;99.90;;;;;;4106992;28;20030;-71
2021/11/21 05:13:06;;;;;;;28.55;16.52;;;9.10;99.90;;;;;;4103095;28;20035;-71
2021/11/21 05:15:09;;;;;;;32.53;17.83;;;9.10;99.90;;;;;;4104857;28;20034;-71
2021/11/21 05:17:10;;;;;;;30.38;18.52;;;9.10;99.90;;;;;;4105343;28;20037;-71
2021/11/21 05:19:10;;;;;;;28.88;17.38;;;9.10;99.90;;;;;;4110129;28;20030;-71
2021/11/21 05:21:11;;;;;;;32.50;18.00;;;9.10;99.90;;;;;;4103328;28;20031;-71
2021/11/21 05:23:12;;;;;;;31.25;18.92;;;9.10;99.90;;;;;;4104770;28;20426;-71
2021/11/21 05:25:14;;;;;;;28.48;17.05;;;9.10;99.90;;;;;;4105589;28;20133;-71
2021/11/21 05:27:14;;;;;;;29.52;17.40;;;9.10;99.90;;;;;;4106359;28;20098;-71
2021/11/21 05:29:15;;;;;;;25.40;15.57;;;9.20;99.90;;;;;;4101513;28;20077;-71
2021/11/21 05:31:16;;;;;;;33.53;19.75;;;9.20;99.90;;;;;;4103643;28;20042;-71
2021/11/21 05:33:17;;;;;;;31.52;18.52;;;9.20;99.90;;;;;;4103562;28;20039;-71
2021/11/21 05:35:18;;;;;;;32.13;18.15;;;9.20;99.90;;;;;;4106003;28;20082;-72
2021/11/21 05:37:19;;;;;;;30.92;16.90;;;9.20;99.90;;;;;;4102908;28;20031;-71
2021/11/21 05:39:20;;;;;;;28.77;17.20;;;9.20;99.90;;;;;;4106568;28;20038;-71
2021/11/21 05:41:20;;;;;;;33.35;19.35;;;9.20;99.90;;;;;;4088267;29;20035;-71
2021/11/21 05:43:21;;;;;;;27.33;16.60;;;9.20;99.90;;;;;;4089043;29;20725;-71
2021/11/21 05:45:21;;;;;;;30.83;17.88;;;9.20;99.90;;;;;;4101054;28;20083;-71
2021/11/21 05:47:22;;;;;;;36.55;19.55;;;9.20;99.90;;;;;;4106192;28;20031;-71
2021/11/21 05:49:23;;;;;;;32.58;19.27;;;9.20;99.90;;;;;;4103671;28;20073;-71
2021/11/21 05:51:23;;;;;;;32.33;17.98;;;9.20;99.90;;;;;;4105567;28;20035;-71
2021/11/21 05:53:24;;;;;;;32.13;17.90;;;9.20;99.90;;;;;;4085020;29;20031;-71
2021/11/21 05:55:25;;;;;;;33.08;19.13;;;9.30;99.90;;;;;;4100810;28;20113;-71
2021/11/21 05:57:25;;;;;;;30.55;18.88;;;9.30;99.90;;;;;;4103525;28;20038;-71
2021/11/21 05:59:26;;;;;;;35.25;20.67;;;9.30;99.90;;;;;;4104518;28;20031;-71
2021/11/21 06:01:27;;;;;;;37.90;20.17;;;9.30;99.90;;;;;;4104724;28;20042;-71
2021/11/21 06:03:27;;;;;;;31.40;17.70;;;9.30;99.90;;;;;;4108968;28;20043;-71
2021/11/21 06:05:29;;;;;;;30.42;17.92;;;9.30;99.90;;;;;;4107012;28;20038;-71
2021/11/21 06:07:29;;;;;;;36.70;20.42;;;9.30;99.90;;;;;;4109157;28;20045;-71
2021/11/21 06:09:30;;;;;;;30.27;16.95;;;9.30;99.90;;;;;;4109991;28;20113;-71
2021/11/21 06:11:30;;;;;;;38.53;20.67;;;9.30;99.90;;;;;;4092425;29;20032;-71
2021/11/21 06:13:31;;;;;;;36.08;19.80;;;9.40;99.90;;;;;;4109112;28;20042;-71
2021/11/21 06:15:32;;;;;;;32.90;18.83;;;9.30;99.90;;;;;;4108986;28;20038;-71
2021/11/21 06:17:32;;;;;;;37.95;20.73;;;9.40;99.90;;;;;;4107413;28;20091;-71
2021/11/21 06:19:35;;;;;;;37.22;20.70;;;9.30;99.90;;;;;;4104690;28;20030;-71
2021/11/21 06:21:35;;;;;;;33.67;19.15;;;9.30;99.90;;;;;;4109275;28;20035;-71
2021/11/21 06:23:36;;;;;;;33.95;19.35;;;9.30;99.90;;;;;;4103545;28;20118;-71
2021/11/21 06:25:38;;;;;;;37.83;19.25;;;9.30;99.90;;;;;;4111824;28;20030;-71
2021/11/21 06:27:39;;;;;;;37.37;19.90;;;9.30;99.90;;;;;;4094026;29;20071;-70
2021/11/21 06:29:40;;;;;;;32.80;18.83;;;9.20;99.90;;;;;;4108864;28;20038;-70
2021/11/21 06:31:41;;;;;;;39.20;22.10;;;9.30;99.90;;;;;;4109822;28;20042;-70
2021/11/21 06:33:41;;;;;;;36.97;20.05;;;9.20;99.90;;;;;;4111195;28;20605;-70
2021/11/21 06:35:42;;;;;;;38.47;20.25;;;9.20;99.90;;;;;;4108389;28;20042;-70
2021/11/21 06:37:44;;;;;;;37.63;19.67;;;9.30;99.90;;;;;;4110598;28;20043;-70
2021/11/21 06:39:45;;;;;;;40.45;22.30;;;9.30;99.90;;;;;;4077508;29;20488;-70
2021/11/21 06:41:45;;;;;;;38.88;19.92;;;9.30;99.90;;;;;;4093028;29;20042;-70
2021/11/21 06:43:46;;;;;;;36.00;19.48;;;9.30;99.90;;;;;;4105153;28;20035;-70
2021/11/21 06:45:47;;;;;;;31.50;18.88;;;9.30;99.90;;;;;;4106324;28;20499;-70
2021/11/21 06:47:47;;;;;;;35.03;19.48;;;9.30;99.90;;;;;;4093804;29;20180;-70
2021/11/21 06:49:48;;;;;;;35.33;20.08;;;9.30;99.90;;;;;;4110522;28;20050;-70
2021/11/21 06:51:50;;;;;;;40.20;22.67;;;9.30;99.90;;;;;;4086178;29;20420;-70
2021/11/21 06:53:51;;;;;;;35.30;19.35;;;9.30;99.90;;;;;;4105856;28;20055;-70
2021/11/21 06:55:52;;;;;;;29.42;17.20;;;9.30;99.90;;;;;;4108169;28;20085;-70
2021/11/21 06:57:53;;;;;;;29.95;17.98;;;9.30;99.90;;;;;;4105844;28;20039;-70
2021/11/21 06:59:53;;;;;;;30.98;17.80;;;9.30;99.90;;;;;;4106788;28;20031;-70
2021/11/21 07:01:54;;;;;;;32.45;18.05;;;9.30;99.90;;;;;;4108936;28;20066;-70
2021/11/21 07:03:55;;;;;;;29.83;16.70;;;9.30;99.90;;;;;;4110281;28;20061;-71
2021/11/21 07:05:55;;;;;;;32.83;18.75;;;9.40;99.90;;;;;;4105932;28;20042;-71
2021/11/21 07:07:57;;;;;;;41.83;22.48;;;9.40;99.90;;;;;;4093614;29;20110;-71
2021/11/21 07:09:58;;;;;;;42.80;22.33;;;9.30;99.90;;;;;;4108159;28;20041;-71
2021/11/21 07:11:58;;;;;;;36.92;19.10;;;9.30;99.90;;;;;;4106300;28;20526;-71
2021/11/21 07:13:59;;;;;;;36.22;19.40;;;9.30;99.90;;;;;;4107486;28;20039;-71
2021/11/21 07:16:00;;;;;;;35.20;18.40;;;9.40;99.90;;;;;;4109089;28;20581;-72
2021/11/21 07:18:00;;;;;;;33.60;18.70;;;9.40;99.90;;;;;;4107555;28;20693;-72
2021/11/21 07:20:02;;;;;;;32.20;18.05;;;9.40;99.90;;;;;;4094074;29;20039;-72
2021/11/21 07:22:03;;;;;;;31.63;17.33;;;9.40;99.90;;;;;;4111068;28;20462;-72
2021/11/21 07:24:04;;;;;;;27.35;15.73;;;9.40;99.90;;;;;;4108731;28;20096;-72
2021/11/21 07:26:04;;;;;;;29.35;16.80;;;9.40;99.90;;;;;;4111093;28;20027;-72
2021/11/21 07:28:05;;;;;;;32.80;18.00;;;9.40;99.90;;;;;;4109903;28;20684;-72
2021/11/21 07:30:06;;;;;;;34.17;17.80;;;9.50;99.90;;;;;;4093803;29;20577;-72
2021/11/21 07:32:07;;;;;;;27.52;15.32;;;9.40;99.90;;;;;;4108328;28;20046;-72
2021/11/21 07:34:08;;;;;;;30.08;15.75;;;9.50;99.90;;;;;;4104662;28;20038;-72
2021/11/21 07:36:09;;;;;;;27.00;14.98;;;9.50;99.90;;;;;;4109596;28;20066;-72
2021/11/21 07:38:09;;;;;;;41.45;15.55;;;9.50;99.90;;;;;;4110247;28;20034;-73
2021/11/21 07:40:12;;;;;;;25.35;14.88;;;9.40;99.90;;;;;;4108167;28;20042;-72
2021/11/21 07:42:12;;;;;;;;;;;9.40;99.90;;;;;;4098260;28;20076;-72
2021/11/21 07:44:13;;;;;;;24.27;14.57;;;9.40;99.90;;;;;;4091003;29;20469;-72
2021/11/21 07:46:14;;;;;;;28.05;14.40;;;9.50;99.90;;;;;;4108022;28;20121;-72
2021/11/21 07:48:15;;;;;;;23.27;12.02;;;9.50;99.90;;;;;;4108377;28;20038;-73
2021/11/21 07:50:15;;;;;;;21.08;11.23;;;9.50;99.90;;;;;;4104186;28;20031;-72
2021/11/21 07:52:16;;;;;;;19.73;11.48;;;9.40;99.90;;;;;;4092994;29;20035;-72
2021/11/21 07:54:16;;;;;;;22.48;12.77;;;9.50;99.90;;;;;;4107055;28;20041;-72
2021/11/21 07:56:18;;;;;;;23.98;13.50;;;9.50;99.90;;;;;;4106093;28;20038;-72
2021/11/21 07:58:19;;;;;;;19.80;11.95;;;9.50;99.90;;;;;;4088610;29;20062;-72
2021/11/21 08:00:20;;;;;;;19.55;11.45;;;9.50;99.90;;;;;;4108976;28;20026;-72
2021/11/21 08:02:21;;;;;;;20.58;12.52;;;9.50;99.90;;;;;;4104905;28;20038;-72
2021/11/21 08:04:21;;;;;;;18.38;11.55;;;9.60;99.90;;;;;;4109549;28;20533;-72
2021/11/21 08:06:22;;;;;;;20.13;11.73;;;9.60;99.90;;;;;;4110379;28;20501;-72
2021/11/21 08:08:23;;;;;;;18.98;11.68;;;9.60;99.90;;;;;;4110758;28;20402;-72
2021/11/21 08:10:23;;;;;;;18.13;11.63;;;9.60;99.90;;;;;;4106288;28;20058;-72
2021/11/21 08:12:24;;;;;;;19.38;12.10;;;9.60;99.90;;;;;;4093050;29;20039;-72
2021/11/21 08:14:25;;;;;;;19.25;12.35;;;9.60;99.90;;;;;;4110341;28;20065;-73
2021/11/21 08:16:26;;;;;;;19.08;12.48;;;9.60;99.90;;;;;;4107059;28;20059;-72
2021/11/21 08:18:26;;;;;;;21.40;13.45;;;9.60;99.90;;;;;;4105965;28;20035;-72
2021/11/21 08:20:27;;;;;;;18.05;10.98;;;9.60;99.90;;;;;;4105845;28;20673;-72
2021/11/21 08:22:27;;;;;;;20.88;12.90;;;9.60;99.90;;;;;;4103026;28;20661;-72
2021/11/21 08:24:28;;;;;;;18.17;10.95;;;9.60;99.90;;;;;;4107066;28;20034;-72
2021/11/21 08:26:30;;;;;;;18.27;11.13;;;9.60;99.90;;;;;;4108917;28;20049;-72
2021/11/21 08:28:31;;;;;;;18.63;11.23;;;9.60;99.90;;;;;;4092369;29;20043;-72
2021/11/21 08:30:36;;;;;;;19.48;11.27;;;9.70;99.90;;;;;;4105423;28;20654;-72
2021/11/21 08:32:37;;;;;;;16.58;10.25;;;9.70;99.90;;;;;;4106564;28;20035;-72
2021/11/21 08:34:37;;;;;;;18.05;10.57;;;9.70;99.90;;;;;;4110061;28;20046;-72
2021/11/21 08:36:38;;;;;;;24.00;12.60;;;9.70;99.90;;;;;;4092185;29;20491;-72
2021/11/21 08:38:39;;;;;;;17.67;11.02;;;9.70;99.90;;;;;;4094816;28;20179;-72
2021/11/21 08:40:40;;;;;;;18.02;11.57;;;9.80;99.90;;;;;;4089886;29;20059;-72
2021/11/21 08:42:41;;;;;;;18.65;11.88;;;9.70;99.90;;;;;;4107695;28;20035;-72
2021/11/21 08:44:41;;;;;;;18.98;11.20;;;9.80;99.90;;;;;;4099542;28;20514;-72
2021/11/21 08:46:42;;;;;;;18.63;11.55;;;9.80;99.90;;;;;;4108106;28;20045;-72
2021/11/21 08:48:43;;;;;;;19.67;11.45;;;9.80;99.90;;;;;;4089238;29;20043;-72
2021/11/21 08:50:43;;;;;;;21.63;12.88;;;9.80;99.90;;;;;;4092465;29;20042;-72
2021/11/21 08:52:44;;;;;;;19.25;11.85;;;9.80;99.90;;;;;;4107446;28;20070;-72
2021/11/21 08:54:45;;;;;;;22.73;13.55;;;9.80;99.90;;;;;;4101059;28;20049;-72
2021/11/21 08:56:47;;;;;;;21.65;12.38;;;9.80;99.90;;;;;;4103632;28;20398;-72
2021/11/21 08:58:48;;;;;;;23.85;14.25;;;9.80;99.90;;;;;;4100844;28;20570;-72
2021/11/21 09:00:49;;;;;;;25.75;13.82;;;9.80;99.90;;;;;;4104175;28;20034;-72
2021/11/21 09:02:51;;;;;;;21.65;12.93;;;9.80;99.90;;;;;;4090114;29;20027;-72
2021/11/21 09:04:51;;;;;;;22.48;13.45;;;9.90;99.90;;;;;;4103673;28;20045;-72
2021/11/21 09:06:52;;;;;;;22.70;14.15;;;9.90;99.90;;;;;;4105744;28;20066;-72
2021/11/21 09:08:53;;;;;;;24.50;13.50;;;9.90;99.90;;;;;;4108470;28;20379;-72
2021/11/21 09:10:54;;;;;;;22.90;13.45;;;10.00;99.90;;;;;;4091635;29;20122;-72
2021/11/21 09:12:55;;;;;;;22.95;13.55;;;10.00;99.90;;;;;;4105456;28;20454;-72
2021/11/21 09:14:55;;;;;;;22.58;13.75;;;10.10;99.90;;;;;;4107073;28;20030;-72
2021/11/21 09:16:56;;;;;;;20.15;12.63;;;10.10;99.90;;;;;;4103920;28;20544;-72
2021/11/21 09:18:57;;;;;;;20.65;12.60;;;10.10;99.90;;;;;;4088257;28;20019;-72
2021/11/21 09:20:58;;;;;;;17.33;11.00;;;10.10;99.90;;;;;;4091206;28;20493;-72
2021/11/21 09:22:59;;;;;;;20.58;13.18;;;10.20;99.90;;;;;;4108592;28;20034;-73
2021/11/21 09:25:00;;;;;;;23.00;13.10;;;10.20;99.90;;;;;;4106501;28;20105;-72
2021/11/21 09:27:00;;;;;;;20.58;12.07;;;10.20;99.90;;;;;;4107622;28;20039;-72
2021/11/21 09:29:01;;;;;;;21.55;12.93;;;10.20;99.90;;;;;;4105966;28;20033;-72
2021/11/21 09:31:02;;;;;;;17.63;10.93;;;10.30;99.90;;;;;;4103908;28;20050;-72
2021/11/21 09:33:03;;;;;;;18.45;11.38;;;10.30;99.90;;;;;;4108023;28;20065;-72
2021/11/21 09:35:05;;;;;;;21.83;13.13;;;10.30;99.90;;;;;;4104685;28;20042;-72
2021/11/21 09:37:06;;;;;;;21.00;12.55;;;10.30;99.90;;;;;;4108084;28;20046;-72
2021/11/21 09:39:07;;;;;;;21.65;12.82;;;10.40;99.90;;;;;;4090933;28;20023;-72
2021/11/21 09:41:07;;;;;;;23.83;12.93;;;10.30;99.90;;;;;;4106582;28;20151;-72
2021/11/21 09:43:08;;;;;;;23.00;13.60;;;10.40;99.90;;;;;;4108633;28;20473;-72
2021/11/21 09:45:11;;;;;;;20.25;11.43;;;10.30;99.90;;;;;;4108340;28;20039;-72
2021/11/21 09:47:13;;;;;;;21.35;13.50;;;10.30;99.90;;;;;;4108449;28;20482;-72
2021/11/21 09:49:15;;;;;;;17.60;11.65;;;10.30;99.90;;;;;;4106687;28;20117;-72
2021/11/21 09:51:16;;;;;;;17.23;11.02;;;10.30;99.90;;;;;;4090803;29;20812;-73
2021/11/21 09:53:17;;;;;;;16.27;9.95;;;10.30;99.90;;;;;;4089434;29;20051;-73
2021/11/21 09:55:18;;;;;;;21.10;11.57;;;10.40;99.90;;;;;;4106309;28;20031;-72
2021/11/21 09:57:19;;;;;;;20.13;11.27;;;10.30;99.90;;;;;;4089927;29;20590;-73
2021/11/21 09:59:50;;;;;;;20.02;12.35;;;10.30;99.90;;;;;;4087857;29;20031;-73
2021/11/21 10:01:50;;;;;;;19.73;12.10;;;10.30;99.90;;;;;;4105312;28;20039;-73
2021/11/21 10:03:51;;;;;;;17.08;10.65;;;10.30;99.90;;;;;;4105181;28;20090;-72
2021/11/21 10:05:54;;;;;;;18.83;11.75;;;10.30;99.90;;;;;;4107655;28;20513;-72
2021/11/21 10:08:22;;;;;;;15.95;10.43;;;10.30;99.90;;;;;;4091114;29;20043;-73
2021/11/21 10:10:22;;;;;;;19.80;11.95;;;10.30;99.90;;;;;;4101955;28;20051;-73
2021/11/21 10:12:25;;;;;;;18.92;11.05;;;10.40;99.90;;;;;;4074548;29;20088;-73
2021/11/21 10:14:26;;;;;;;17.90;10.48;;;10.40;99.90;;;;;;4089502;29;20819;-73
2021/11/21 10:16:31;;;;;;;21.50;10.95;;;10.40;99.90;;;;;;4101340;28;20026;-72
2021/11/21 10:18:53;;;;;;;19.70;11.35;;;10.40;99.90;;;;;;4089031;29;20035;-73
2021/11/21 10:20:55;;;;;;;20.75;11.75;;;10.40;99.90;;;;;;4088724;29;20555;-73
2021/11/21 10:23:07;;;;;;;17.13;10.35;;;10.30;99.90;;;;;;4101653;28;20459;-73